createdAt,value
2024-02-15T00:01:58.447Z,68.20
2024-02-15T00:04:30.039Z,68.10
2024-02-15T00:06:59.803Z,68.20
2024-02-15T00:09:27.455Z,68.30
2024-02-15T00:11:57.275Z,68.40
2024-02-15T00:14:26.422Z,68.50
2024-02-15T00:16:53.805Z,68.80
2024-02-15T00:19:23.256Z,69.00
2024-02-15T00:21:53.384Z,69.00
2024-02-15T00:24:22.746Z,69.00
2024-02-15T00:26:50.016Z,69.10
2024-02-15T00:29:17.480Z,68.90
2024-02-15T00:31:46.685Z,69.00
2024-02-15T00:34:16.731Z,69.10
2024-02-15T00:36:47.687Z,69.00
2024-02-15T00:39:21.439Z,69.10
2024-02-15T00:41:51.088Z,69.50
2024-02-15T00:44:20.449Z,69.50
2024-02-15T00:46:49.099Z,69.50
2024-02-15T00:49:16.896Z,69.50
2024-02-15T00:51:46.385Z,69.40
2024-02-15T00:54:13.765Z,69.30
2024-02-15T00:56:43.086Z,69.70
2024-02-15T00:59:10.928Z,69.80
2024-02-15T01:01:41.192Z,69.70
2024-02-15T01:04:10.709Z,69.60
2024-02-15T01:06:38.015Z,69.50
2024-02-15T01:09:07.272Z,69.10
2024-02-15T01:11:37.960Z,68.80
2024-02-15T01:14:11.033Z,69.00
2024-02-15T01:16:38.515Z,68.80
2024-02-15T01:19:06.608Z,69.70
2024-02-15T01:21:38.138Z,69.20
2024-02-15T01:24:08.013Z,69.90
2024-02-15T01:26:36.087Z,69.30
2024-02-15T01:29:07.544Z,69.30
2024-02-15T01:31:34.869Z,69.20
2024-02-15T01:34:02.258Z,69.20
2024-02-15T01:36:34.022Z,69.30
2024-02-15T01:39:01.300Z,69.40
2024-02-15T01:41:28.711Z,69.30
2024-02-15T01:44:02.033Z,69.20
2024-02-15T01:46:32.793Z,69.40
2024-02-15T01:49:00.564Z,69.80
2024-02-15T01:51:30.846Z,69.90
2024-02-15T01:54:00.947Z,70.00
2024-02-15T01:56:29.549Z,70.00
2024-02-15T01:58:58.996Z,70.00
2024-02-15T02:01:29.018Z,69.90
2024-02-15T02:03:58.456Z,69.90
2024-02-15T02:06:28.046Z,69.90
2024-02-15T02:08:57.940Z,70.00
2024-02-15T02:11:26.089Z,70.00
2024-02-15T02:13:55.412Z,69.90
2024-02-15T02:16:33.808Z,70.10
2024-02-15T02:19:01.732Z,70.00
2024-02-15T02:21:30.158Z,70.00
2024-02-15T02:24:06.144Z,70.20
